createdAt,value
2018-01-18T00:00:37.506Z,3.53
2018-01-18T00:03:05.076Z,3.23
2018-01-18T00:05:33.561Z,4.30
2018-01-18T00:08:01.239Z,2.70
2018-01-18T00:10:28.799Z,4.23
2018-01-18T00:12:56.393Z,4.17
2018-01-18T00:15:23.966Z,3.70
2018-01-18T00:17:51.533Z,3.97
2018-01-18T00:20:19.149Z,3.77
2018-01-18T00:22:46.729Z,4.10
2018-01-18T00:25:14.304Z,4.90
2018-01-18T00:27:41.908Z,4.83
2018-01-18T00:30:09.468Z,5.93
2018-01-18T00:32:37.055Z,4.33
2018-01-18T00:35:04.657Z,4.63
2018-01-18T00:37:32.271Z,7.20
2018-01-18T00:39:59.824Z,6.30
2018-01-18T00:42:27.428Z,5.97
2018-01-18T00:44:54.995Z,5.23
2018-01-18T00:47:22.641Z,6.57
2018-01-18T00:49:50.224Z,6.87
2018-01-18T00:52:17.793Z,3.10
2018-01-18T00:54:45.373Z,5.63
2018-01-18T00:57:12.979Z,5.17
2018-01-18T00:59:40.539Z,7.00
2018-01-18T01:02:08.136Z,5.40
2018-01-18T01:04:35.847Z,5.43
2018-01-18T01:07:03.407Z,5.40
2018-01-18T01:09:30.959Z,5.17
2018-01-18T01:11:58.553Z,5.50
2018-01-18T01:14:26.126Z,4.47
2018-01-18T01:16:53.713Z,3.70
2018-01-18T01:19:21.428Z,6.13
2018-01-18T01:21:48.984Z,3.63
2018-01-18T01:24:16.553Z,4.80
2018-01-18T01:26:44.143Z,3.40
2018-01-18T01:29:11.690Z,4.93
2018-01-18T01:31:39.260Z,3.83
2018-01-18T01:34:06.862Z,3.30
2018-01-18T01:36:34.412Z,4.17
2018-01-18T01:39:01.986Z,3.65
2018-01-18T01:41:29.583Z,2.97
2018-01-18T01:43:57.183Z,3.50
2018-01-18T01:46:24.740Z,3.47
2018-01-18T01:48:52.334Z,4.13
2018-01-18T01:51:19.903Z,2.53
2018-01-18T01:53:47.459Z,4.10
2018-01-18T01:56:15.058Z,4.23
2018-01-18T01:58:42.623Z,4.73
2018-01-18T02:01:10.182Z,4.10
2018-01-18T02:03:37.772Z,3.80
2018-01-18T02:06:05.329Z,3.37
2018-01-18T02:08:32.899Z,3.80
2018-01-18T02:11:00.481Z,3.60
2018-01-18T02:13:28.041Z,3.73
2018-01-18T02:15:55.619Z,3.10
2018-01-18T02:18:23.212Z,4.07
2018-01-18T02:20:50.762Z,4.17
2018-01-18T02:23:18.319Z,3.87
2018-01-18T02:25:45.914Z,2.73
2018-01-18T02:28:13.478Z,4.63
2018-01-18T02:30:41.039Z,3.13
2018-01-18T02:33:08.677Z,4.77
2018-01-18T02:35:36.239Z,4.78
2018-01-18T02:38:03.796Z,5.00
2018-01-18T02:40:31.396Z,5.30
2018-01-18T02:42:58.944Z,4.03
2018-01-18T02:45:26.493Z,4.50
2018-01-18T02:47:54.088Z,5.50
2018-01-18T02:50:21.647Z,5.82
2018-01-18T02:52:49.212Z,6.47
2018-01-18T02:55:16.824Z,6.70
2018-01-18T02:57:44.361Z,5.30
2018-01-18T03:00:11.894Z,6.43
2018-01-18T03:02:39.476Z,6.80
2018-01-18T03:05:07.055Z,6.67
2018-01-18T03:07:34.638Z,5.90
2018-01-18T03:10:02.245Z,4.97
2018-01-18T03:12:29.821Z,4.13
2018-01-18T03:14:57.378Z,6.50
2018-01-18T03:17:24.983Z,6.70
2018-01-18T03:19:52.550Z,6.97
2018-01-18T03:22:20.110Z,6.47
2018-01-18T03:24:47.718Z,6.60
2018-01-18T03:27:15.289Z,6.57
2018-01-18T03:29:42.859Z,5.17
2018-01-18T03:32:10.461Z,5.90
2018-01-18T03:34:38.038Z,6.28
2018-01-18T03:37:05.585Z,4.90
2018-01-18T03:39:33.189Z,5.23
2018-01-18T03:42:00.747Z,5.10
2018-01-18T03:44:28.309Z,5.33
2018-01-18T03:46:55.913Z,5.10
2018-01-18T03:49:23.490Z,5.10
2018-01-18T03:51:51.055Z,5.07
2018-01-18T03:54:18.648Z,5.90
2018-01-18T03:56:46.214Z,5.07
2018-01-18T03:59:13.766Z,5.80
2018-01-18T04:01:41.370Z,6.60
2018-01-18T04:04:08.974Z,6.20
2018-01-18T04:06:36.523Z,5.10
2018-01-18T04:09:04.234Z,6.10
2018-01-18T04:11:31.798Z,5.97
2018-01-18T04:13:59.365Z,4.80
2018-01-18T04:16:26.949Z,5.40
2018-01-18T04:18:54.524Z,5.03
2018-01-18T04:21:22.079Z,4.23
2018-01-18T04:23:49.731Z,5.28
2018-01-18T04:26:17.286Z,4.80
2018-01-18T04:28:44.840Z,4.67
2018-01-18T04:31:12.440Z,5.70
2018-01-18T04:33:39.992Z,5.80
2018-01-18T04:36:07.552Z,4.40
2018-01-18T04:38:35.156Z,4.80
2018-01-18T04:41:02.715Z,3.27
2018-01-18T04:43:30.273Z,6.80
2018-01-18T04:45:57.889Z,7.53
2018-01-18T04:48:25.457Z,7.07
2018-01-18T04:50:53.059Z,5.40
2018-01-18T04:53:20.648Z,7.07
2018-01-18T04:55:48.210Z,6.10
2018-01-18T04:58:15.796Z,7.47
2018-01-18T05:00:43.402Z,7.10
2018-01-18T05:03:10.969Z,9.30
2018-01-18T05:05:38.539Z,9.27
2018-01-18T05:08:06.123Z,7.50
2018-01-18T05:10:33.695Z,6.63
2018-01-18T05:13:01.247Z,8.30
2018-01-18T05:15:28.849Z,9.77
2018-01-18T05:17:56.410Z,9.50
2018-01-18T05:20:23.967Z,10.53
2018-01-18T05:22:51.566Z,9.73
2018-01-18T05:25:19.126Z,11.43
2018-01-18T05:27:46.690Z,14.23
2018-01-18T05:30:14.292Z,15.43
2018-01-18T05:32:41.926Z,11.90
2018-01-18T05:35:09.509Z,15.50
2018-01-18T05:37:37.118Z,13.70
2018-01-18T05:40:04.674Z,9.57
2018-01-18T05:42:32.227Z,10.47
2018-01-18T05:44:59.861Z,9.80
2018-01-18T05:47:27.421Z,12.77
2018-01-18T05:49:54.993Z,8.67
2018-01-18T05:52:22.607Z,8.77
2018-01-18T05:54:50.157Z,9.17
2018-01-18T05:57:17.737Z,4.60
2018-01-18T05:59:45.334Z,10.23
2018-01-18T06:02:12.886Z,8.83
2018-01-18T06:04:40.454Z,12.50
2018-01-18T06:07:08.065Z,11.67
2018-01-18T06:09:35.630Z,12.33
2018-01-18T06:12:03.195Z,15.07
2018-01-18T06:14:30.953Z,25.17
2018-01-18T06:16:58.522Z,17.40
2018-01-18T06:19:26.090Z,12.20
2018-01-18T06:21:53.709Z,12.43
2018-01-18T06:24:21.303Z,12.77
2018-01-18T06:26:48.878Z,22.13
2018-01-18T06:29:16.532Z,11.87
2018-01-18T06:31:44.196Z,12.40
2018-01-18T06:34:11.768Z,10.73
2018-01-18T06:36:39.360Z,9.03
2018-01-18T06:39:06.935Z,7.67
2018-01-18T06:41:34.517Z,9.03
2018-01-18T06:44:02.119Z,7.57
2018-01-18T06:46:29.700Z,10.17
2018-01-18T06:48:57.255Z,9.00
2018-01-18T06:51:24.875Z,13.77
2018-01-18T06:53:52.563Z,15.43
2018-01-18T06:56:20.408Z,7.47
2018-01-18T06:58:48.023Z,8.80
2018-01-18T07:01:15.609Z,8.70
2018-01-18T07:03:43.240Z,18.07
2018-01-18T07:06:10.901Z,9.03
2018-01-18T07:08:38.459Z,10.17
2018-01-18T07:11:06.015Z,9.87
2018-01-18T07:13:33.612Z,15.50
2018-01-18T07:16:01.189Z,18.00
2018-01-18T07:18:28.766Z,15.60
2018-01-18T07:20:56.364Z,13.37
2018-01-18T07:23:23.930Z,13.10
2018-01-18T07:25:51.511Z,8.97
2018-01-18T07:28:19.118Z,12.73
2018-01-18T07:30:46.691Z,10.20
2018-01-18T07:33:14.272Z,14.80
2018-01-18T07:35:41.876Z,11.10
2018-01-18T07:38:09.440Z,14.67
2018-01-18T07:40:37.021Z,17.70
2018-01-18T07:43:04.631Z,9.13
2018-01-18T07:45:32.183Z,9.20
2018-01-18T07:47:59.778Z,9.20
2018-01-18T07:50:27.409Z,10.00
2018-01-18T07:52:54.984Z,11.83
2018-01-18T07:55:22.666Z,9.40
2018-01-18T07:57:50.326Z,10.35
2018-01-18T08:00:17.905Z,17.83
2018-01-18T08:02:51.124Z,10.97
2018-01-18T08:05:18.738Z,11.10
2018-01-18T08:07:46.317Z,11.07
2018-01-18T08:10:13.920Z,13.17
2018-01-18T08:12:41.499Z,8.67
2018-01-18T08:15:09.060Z,8.07
2018-01-18T08:17:36.673Z,11.17
2018-01-18T08:20:04.254Z,9.30
2018-01-18T08:22:31.824Z,7.70
2018-01-18T08:24:59.511Z,9.07
2018-01-18T08:27:27.101Z,9.03
2018-01-18T08:29:54.670Z,10.37
2018-01-18T08:32:22.312Z,7.63
2018-01-18T08:34:50.047Z,9.20
2018-01-18T08:37:17.625Z,9.87
2018-01-18T08:39:45.232Z,11.93
2018-01-18T08:42:12.799Z,8.70
2018-01-18T08:44:40.366Z,8.90
2018-01-18T08:47:07.995Z,7.00
2018-01-18T08:49:35.568Z,11.23
2018-01-18T08:52:03.196Z,8.00
2018-01-18T08:54:30.805Z,7.53
2018-01-18T08:56:58.378Z,7.63
2018-01-18T08:59:25.956Z,13.03
2018-01-18T09:01:53.566Z,13.70
2018-01-18T09:04:21.182Z,10.63
2018-01-18T09:06:48.777Z,6.43
2018-01-18T09:09:16.412Z,7.93
2018-01-18T09:11:43.989Z,6.80
2018-01-18T09:14:11.585Z,7.17
2018-01-18T09:16:39.196Z,5.10
2018-01-18T09:19:06.780Z,7.53
2018-01-18T09:21:34.338Z,6.43
2018-01-18T09:24:01.945Z,6.27
2018-01-18T09:26:29.540Z,9.27
2018-01-18T09:28:57.107Z,8.00
2018-01-18T09:31:24.768Z,6.87
2018-01-18T09:33:52.390Z,7.07
2018-01-18T09:36:19.959Z,9.70
2018-01-18T09:38:47.606Z,6.33
2018-01-18T09:41:15.187Z,8.10
2018-01-18T09:43:42.792Z,9.27
2018-01-18T09:46:10.404Z,5.97
2018-01-18T09:48:37.997Z,6.83
2018-01-18T09:51:05.567Z,7.53
2018-01-18T09:53:33.188Z,12.57
2018-01-18T09:56:00.763Z,6.40
2018-01-18T09:58:28.324Z,7.50
2018-01-18T10:00:55.942Z,9.07
2018-01-18T10:03:23.572Z,8.20
2018-01-18T10:05:51.170Z,7.93
2018-01-18T10:08:18.783Z,8.70
2018-01-18T10:10:46.345Z,9.60
2018-01-18T10:13:13.908Z,7.97
2018-01-18T10:15:41.522Z,13.83
2018-01-18T10:18:09.314Z,6.20
2018-01-18T10:20:36.900Z,10.63
2018-01-18T10:23:04.510Z,7.10
2018-01-18T10:25:32.144Z,7.73
2018-01-18T10:27:59.714Z,8.00
2018-01-18T10:30:27.503Z,9.23
2018-01-18T10:32:55.090Z,8.27
2018-01-18T10:35:22.849Z,8.83
2018-01-18T10:37:50.472Z,8.27
2018-01-18T10:40:18.031Z,5.37
2018-01-18T10:42:45.647Z,7.37
2018-01-18T10:45:13.254Z,8.00
2018-01-18T10:47:40.841Z,9.27
2018-01-18T10:50:08.419Z,8.80
2018-01-18T10:52:36.014Z,16.80
2018-01-18T10:55:03.593Z,9.47
2018-01-18T10:57:31.168Z,8.07
2018-01-18T10:59:58.779Z,7.67
2018-01-18T11:02:26.373Z,8.10
2018-01-18T11:04:53.969Z,11.17
2018-01-18T11:07:21.593Z,9.23
2018-01-18T11:09:49.328Z,9.40
2018-01-18T11:12:16.898Z,11.93
2018-01-18T11:14:44.517Z,7.70
2018-01-18T11:17:12.245Z,7.80
2018-01-18T11:19:39.808Z,6.80
2018-01-18T11:22:07.400Z,4.90
2018-01-18T11:24:34.979Z,6.00
2018-01-18T11:27:02.591Z,5.30
2018-01-18T11:29:30.216Z,6.57
2018-01-18T11:31:57.796Z,5.60
2018-01-18T11:34:25.426Z,8.57
2018-01-18T11:36:53.044Z,9.27
2018-01-18T11:39:20.610Z,7.47
2018-01-18T11:41:48.192Z,7.23
2018-01-18T11:44:15.834Z,11.53
2018-01-18T11:46:43.456Z,5.43
2018-01-18T11:49:11.036Z,7.97
2018-01-18T11:51:38.640Z,5.90
2018-01-18T11:54:06.254Z,8.60
2018-01-18T11:56:33.834Z,6.77
2018-01-18T11:59:01.504Z,7.00
2018-01-18T12:01:29.113Z,7.40
2018-01-18T12:03:56.709Z,6.60
2018-01-18T12:06:24.322Z,5.37
2018-01-18T12:08:51.894Z,5.50
2018-01-18T12:11:19.639Z,5.40
2018-01-18T12:13:47.212Z,6.10
2018-01-18T12:16:14.965Z,7.60
2018-01-18T12:18:42.534Z,3.50
2018-01-18T12:21:10.261Z,6.67
2018-01-18T12:23:37.805Z,6.17
2018-01-18T12:26:05.369Z,9.40
2018-01-18T12:28:32.999Z,9.87
2018-01-18T12:31:00.560Z,7.63
2018-01-18T12:33:28.176Z,4.90
2018-01-18T12:35:55.774Z,7.93
2018-01-18T12:38:23.338Z,9.53
2018-01-18T12:40:50.929Z,12.00
2018-01-18T12:43:18.629Z,10.53
2018-01-18T12:45:46.205Z,9.87
2018-01-18T12:48:13.769Z,22.40
2018-01-18T12:50:41.369Z,8.50
2018-01-18T12:53:08.934Z,12.93
2018-01-18T12:55:36.500Z,8.57
2018-01-18T12:58:04.107Z,9.30
2018-01-18T13:00:31.677Z,13.50
2018-01-18T13:02:59.318Z,13.83
2018-01-18T13:05:26.937Z,11.17
2018-01-18T13:07:54.515Z,7.10
2018-01-18T13:10:22.067Z,15.10
2018-01-18T13:12:49.689Z,17.50
2018-01-18T13:15:17.278Z,9.67
2018-01-18T13:17:48.033Z,5.77
2018-01-18T13:20:15.920Z,13.23
2018-01-18T13:22:43.487Z,8.40
2018-01-18T13:25:11.051Z,6.07
2018-01-18T13:27:38.676Z,5.60
2018-01-18T13:30:06.245Z,9.27
2018-01-18T13:32:33.849Z,4.47
2018-01-18T13:35:01.470Z,6.00
2018-01-18T13:37:29.068Z,10.17
2018-01-18T13:39:56.690Z,6.47
2018-01-18T13:42:24.302Z,7.47
2018-01-18T13:44:51.869Z,5.00
2018-01-18T13:47:19.460Z,5.57
2018-01-18T13:49:47.052Z,9.20
2018-01-18T13:52:14.629Z,5.90
2018-01-18T13:54:42.226Z,9.47
2018-01-18T13:57:09.827Z,8.67
2018-01-18T13:59:37.431Z,15.30
2018-01-18T14:02:05.035Z,6.40
2018-01-18T14:04:32.673Z,10.40
2018-01-18T14:07:00.252Z,12.70
2018-01-18T14:09:27.824Z,7.70
2018-01-18T14:11:55.446Z,4.93
2018-01-18T14:14:23.015Z,5.80
2018-01-18T14:16:50.759Z,13.10
2018-01-18T14:19:18.397Z,8.10
2018-01-18T14:21:45.985Z,13.90
2018-01-18T14:24:13.575Z,11.33
2018-01-18T14:26:41.181Z,10.87
2018-01-18T14:29:08.825Z,28.57
2018-01-18T14:31:36.384Z,9.43
2018-01-18T14:34:03.976Z,12.67
2018-01-18T14:36:31.549Z,12.67
2018-01-18T14:38:59.113Z,10.97
2018-01-18T14:41:26.748Z,14.47
2018-01-18T14:43:54.324Z,12.73
2018-01-18T14:46:21.904Z,8.90
2018-01-18T14:48:49.537Z,10.30
2018-01-18T14:51:17.121Z,12.20
2018-01-18T14:53:44.711Z,10.63
2018-01-18T14:56:12.331Z,16.70
2018-01-18T14:58:39.904Z,10.03
2018-01-18T15:01:07.481Z,6.80
2018-01-18T15:03:35.084Z,14.13
2018-01-18T15:06:02.648Z,9.20
2018-01-18T15:08:30.209Z,8.00
2018-01-18T15:10:57.802Z,8.37
2018-01-18T15:13:26.339Z,14.33
2018-01-18T15:15:53.909Z,20.53
2018-01-18T15:18:21.528Z,20.40
2018-01-18T15:20:49.100Z,11.17
2018-01-18T15:23:16.664Z,12.30
2018-01-18T15:25:44.340Z,11.23
2018-01-18T15:28:11.901Z,12.87
2018-01-18T15:30:39.467Z,15.03
2018-01-18T15:33:07.098Z,15.73
2018-01-18T15:35:34.681Z,24.00
2018-01-18T15:38:02.277Z,22.00
2018-01-18T15:40:29.865Z,32.03
2018-01-18T15:42:57.456Z,20.80
2018-01-18T15:45:25.035Z,38.77
2018-01-18T15:47:52.882Z,26.47
2018-01-18T15:50:20.446Z,21.57
2018-01-18T15:52:48.036Z,13.80
2018-01-18T15:55:15.631Z,9.50
2018-01-18T15:57:43.196Z,19.30
2018-01-18T16:00:10.779Z,19.57
2018-01-18T16:02:38.532Z,22.13
2018-01-18T16:05:06.099Z,19.93
2018-01-18T16:07:33.680Z,15.20
2018-01-18T16:10:01.299Z,19.37
2018-01-18T16:12:28.886Z,22.83
2018-01-18T16:14:56.467Z,13.97
2018-01-18T16:17:24.079Z,25.97
2018-01-18T16:19:51.718Z,16.57
2018-01-18T16:22:19.305Z,25.03
2018-01-18T16:24:46.917Z,13.20
2018-01-18T16:27:14.493Z,25.63
2018-01-18T16:29:42.077Z,46.47
2018-01-18T16:32:09.700Z,28.83
2018-01-18T16:34:37.285Z,24.50
2018-01-18T16:37:04.863Z,41.13
2018-01-18T16:39:32.479Z,31.93
2018-01-18T16:42:00.050Z,13.23
2018-01-18T16:44:27.621Z,11.23
2018-01-18T16:46:55.349Z,18.20
2018-01-18T16:49:22.975Z,42.23
2018-01-18T16:51:50.539Z,30.03
2018-01-18T16:54:18.149Z,33.90
2018-01-18T16:56:45.719Z,30.10
2018-01-18T16:59:13.297Z,26.00
2018-01-18T17:01:40.915Z,27.30
2018-01-18T17:04:08.487Z,44.17
2018-01-18T17:06:36.237Z,28.07
2018-01-18T17:09:03.897Z,24.83
2018-01-18T17:11:31.490Z,37.23
2018-01-18T17:13:59.085Z,33.30
2018-01-18T17:16:26.749Z,37.03
2018-01-18T17:18:54.316Z,29.70
2018-01-18T17:21:21.948Z,17.30
2018-01-18T17:23:49.553Z,30.37
2018-01-18T17:26:17.122Z,21.27
2018-01-18T17:28:44.686Z,15.53
2018-01-18T17:31:12.293Z,21.80
2018-01-18T17:33:39.883Z,26.97
2018-01-18T17:36:07.444Z,53.17
2018-01-18T17:38:35.045Z,17.70
2018-01-18T17:41:03.208Z,25.70
2018-01-18T17:43:30.794Z,20.40
2018-01-18T17:45:58.409Z,31.03
2018-01-18T17:48:25.980Z,18.87
2018-01-18T17:50:53.555Z,17.30
2018-01-18T17:53:21.171Z,22.80
2018-01-18T17:55:48.872Z,48.83
2018-01-18T17:58:16.444Z,21.80
2018-01-18T18:00:44.055Z,17.30
2018-01-18T18:03:11.629Z,14.00
2018-01-18T18:05:39.223Z,16.90
2018-01-18T18:08:06.844Z,21.63
2018-01-18T18:10:34.402Z,21.73
2018-01-18T18:13:01.968Z,19.10
2018-01-18T18:15:29.599Z,17.83
2018-01-18T18:17:57.162Z,11.57
2018-01-18T18:20:24.735Z,9.90
2018-01-18T18:22:52.385Z,14.93
2018-01-18T18:25:19.992Z,26.70
2018-01-18T18:27:47.605Z,33.00
2018-01-18T18:30:15.226Z,14.50
2018-01-18T18:32:42.836Z,11.67
2018-01-18T18:35:10.426Z,19.33
2018-01-18T18:37:38.060Z,12.60
2018-01-18T18:40:05.605Z,24.50
2018-01-18T18:42:33.175Z,20.27
2018-01-18T18:45:00.871Z,17.60
2018-01-18T18:47:28.449Z,20.67
2018-01-18T18:49:56.019Z,11.20
2018-01-18T18:52:23.637Z,24.23
2018-01-18T18:54:51.218Z,22.53
2018-01-18T18:57:18.796Z,20.50
2018-01-18T18:59:46.389Z,14.30
2018-01-18T19:02:13.987Z,10.50
2018-01-18T19:04:41.565Z,15.63
2018-01-18T19:07:09.189Z,15.27
2018-01-18T19:09:36.773Z,21.93
2018-01-18T19:12:04.332Z,8.80
2018-01-18T19:14:31.956Z,26.40
2018-01-18T19:16:59.545Z,8.57
2018-01-18T19:19:27.132Z,11.77
2018-01-18T19:21:54.797Z,10.37
2018-01-18T19:24:22.380Z,17.50
2018-01-18T19:26:49.970Z,15.60
2018-01-18T19:29:17.608Z,30.73
2018-01-18T19:31:45.187Z,19.40
2018-01-18T19:34:12.759Z,14.80
2018-01-18T19:36:40.484Z,12.30
2018-01-18T19:39:08.081Z,22.10
2018-01-18T19:41:35.643Z,23.50
2018-01-18T19:44:03.250Z,24.20
2018-01-18T19:46:30.842Z,21.27
2018-01-18T19:48:58.449Z,27.70
2018-01-18T19:51:26.062Z,26.30
2018-01-18T19:53:53.643Z,19.40
2018-01-18T19:56:21.198Z,26.60
2018-01-18T19:58:48.848Z,21.20
2018-01-18T20:01:16.426Z,16.90
2018-01-18T20:03:44.000Z,18.93
2018-01-18T20:06:11.603Z,13.43
2018-01-18T20:08:39.187Z,62.00
2018-01-18T20:11:06.774Z,22.00
2018-01-18T20:13:34.392Z,19.90
2018-01-18T20:16:02.002Z,18.70
2018-01-18T20:18:30.499Z,15.20
2018-01-18T20:20:58.092Z,17.93
2018-01-18T20:23:25.665Z,18.00
2018-01-18T20:25:53.240Z,23.60
2018-01-18T20:28:20.875Z,28.00
2018-01-18T20:30:48.508Z,20.43
2018-01-18T20:33:16.127Z,21.27
2018-01-18T20:35:43.753Z,25.40
2018-01-18T20:38:11.392Z,20.80
2018-01-18T20:40:38.964Z,22.37
2018-01-18T20:43:06.563Z,17.30
2018-01-18T20:45:34.152Z,16.33
2018-01-18T20:48:01.716Z,16.90
2018-01-18T20:50:29.410Z,9.80
2018-01-18T20:52:56.965Z,14.80
2018-01-18T20:55:24.540Z,11.93
2018-01-18T20:57:52.167Z,16.73
2018-01-18T21:00:19.746Z,34.93
2018-01-18T21:02:53.168Z,12.07
2018-01-18T21:05:20.766Z,38.20
2018-01-18T21:07:48.370Z,12.27
2018-01-18T21:10:16.012Z,24.97
2018-01-18T21:12:43.597Z,8.73
2018-01-18T21:15:11.175Z,9.03
2018-01-18T21:17:38.819Z,8.67
2018-01-18T21:20:06.435Z,8.53
2018-01-18T21:22:34.008Z,9.10
2018-01-18T21:25:01.612Z,8.30
2018-01-18T21:27:29.172Z,9.80
2018-01-18T21:29:56.762Z,14.77
2018-01-18T21:32:24.383Z,12.80
2018-01-18T21:34:51.986Z,13.40
2018-01-18T21:37:19.549Z,32.73
2018-01-18T21:39:47.545Z,10.90
2018-01-18T21:42:15.115Z,9.43
2018-01-18T21:44:42.684Z,11.47
2018-01-18T21:47:10.295Z,14.50
2018-01-18T21:49:37.882Z,12.53
2018-01-18T21:52:05.465Z,9.90
2018-01-18T21:54:33.069Z,9.60
2018-01-18T21:57:00.630Z,10.77
2018-01-18T21:59:28.189Z,13.00
2018-01-18T22:01:55.813Z,11.87
2018-01-18T22:04:23.399Z,13.73
2018-01-18T22:06:50.995Z,12.00
2018-01-18T22:09:18.604Z,10.87
2018-01-18T22:11:46.197Z,10.37
2018-01-18T22:14:13.761Z,12.43
2018-01-18T22:16:41.362Z,11.57
2018-01-18T22:19:08.923Z,9.43
2018-01-18T22:21:36.493Z,13.10
2018-01-18T22:24:04.103Z,8.87
2018-01-18T22:26:31.695Z,10.37
2018-01-18T22:28:59.308Z,14.57
2018-01-18T22:31:26.946Z,12.87
2018-01-18T22:33:54.533Z,12.23
2018-01-18T22:36:22.115Z,13.10
2018-01-18T22:38:49.721Z,43.70
2018-01-18T22:41:17.306Z,17.37
2018-01-18T22:43:44.889Z,13.53
2018-01-18T22:46:12.545Z,13.30
2018-01-18T22:48:40.140Z,14.17
2018-01-18T22:51:07.701Z,12.80
2018-01-18T22:53:35.308Z,16.83
2018-01-18T22:56:02.892Z,9.73
2018-01-18T22:58:30.442Z,7.80
2018-01-18T23:00:58.054Z,9.90
2018-01-18T23:03:25.624Z,8.70
2018-01-18T23:05:53.197Z,8.33
2018-01-18T23:08:20.944Z,8.30
2018-01-18T23:10:48.509Z,10.43
2018-01-18T23:13:16.106Z,22.07
2018-01-18T23:15:43.730Z,17.03
2018-01-18T23:18:11.299Z,10.73
2018-01-18T23:20:38.892Z,7.57
2018-01-18T23:23:06.506Z,8.80
2018-01-18T23:25:34.063Z,24.40
2018-01-18T23:28:01.630Z,10.27
2018-01-18T23:30:29.262Z,10.60
2018-01-18T23:32:56.839Z,11.00
2018-01-18T23:35:24.399Z,12.60
2018-01-18T23:37:51.983Z,12.90
2018-01-18T23:40:19.561Z,13.40
2018-01-18T23:42:47.127Z,18.70
2018-01-18T23:45:14.737Z,17.70
2018-01-18T23:47:42.314Z,20.03
2018-01-18T23:50:09.894Z,18.83
2018-01-18T23:52:37.490Z,20.17
2018-01-18T23:55:05.063Z,15.30
2018-01-18T23:57:32.642Z,16.97
